createdAt,value
2017-09-09T00:01:00.532Z,19.01
2017-09-09T00:03:27.772Z,19.00
2017-09-09T00:05:54.932Z,19.01
2017-09-09T00:08:22.581Z,19.01
2017-09-09T00:10:51.349Z,19.00
2017-09-09T00:13:18.533Z,19.01
2017-09-09T00:15:45.674Z,19.00
2017-09-09T00:18:12.965Z,19.00
2017-09-09T00:20:40.505Z,19.01
2017-09-09T00:23:08.586Z,19.01
2017-09-09T00:25:35.717Z,19.01
2017-09-09T00:28:02.858Z,19.01
2017-09-09T00:30:30.016Z,19.01
2017-09-09T00:32:57.254Z,19.01
2017-09-09T00:35:24.673Z,19.01
2017-09-09T00:37:52.172Z,19.00
2017-09-09T00:40:20.093Z,19.00
2017-09-09T00:42:48.696Z,19.00
2017-09-09T00:45:15.994Z,19.00
2017-09-09T00:47:43.138Z,19.00
2017-09-09T00:50:10.667Z,18.99
2017-09-09T00:52:37.843Z,19.00
2017-09-09T00:55:05.001Z,19.00
2017-09-09T00:57:32.175Z,19.01
2017-09-09T00:59:59.542Z,19.00
2017-09-09T01:02:26.692Z,19.00
2017-09-09T01:04:53.839Z,19.00
2017-09-09T01:07:20.996Z,19.00
2017-09-09T01:09:48.130Z,19.00
2017-09-09T01:12:15.257Z,19.00
2017-09-09T01:14:42.393Z,19.00
2017-09-09T01:17:09.555Z,19.01
2017-09-09T01:19:36.707Z,19.00
2017-09-09T01:22:03.855Z,19.00
2017-09-09T01:24:31.003Z,19.00
2017-09-09T01:26:58.146Z,19.00
2017-09-09T01:29:25.295Z,19.00
2017-09-09T01:31:52.432Z,19.00
2017-09-09T01:34:19.579Z,19.00
2017-09-09T01:36:46.730Z,19.00
2017-09-09T01:39:13.877Z,19.00
2017-09-09T01:41:41.014Z,19.00
2017-09-09T01:44:08.923Z,19.00
2017-09-09T01:46:36.072Z,19.00
2017-09-09T01:49:03.228Z,18.99
2017-09-09T01:51:30.356Z,18.99
2017-09-09T01:53:57.509Z,19.00
2017-09-09T01:56:24.659Z,18.99
2017-09-09T01:58:51.811Z,18.99
2017-09-09T02:01:18.963Z,18.99
2017-09-09T02:03:46.126Z,18.99
2017-09-09T02:06:13.279Z,19.00
2017-09-09T02:08:40.417Z,18.99
2017-09-09T02:11:07.549Z,19.00
2017-09-09T02:13:34.707Z,18.99
2017-09-09T02:16:01.860Z,18.99
2017-09-09T02:18:29.007Z,18.99
2017-09-09T02:20:56.136Z,18.99
2017-09-09T02:23:23.270Z,18.99
2017-09-09T02:25:50.410Z,18.99
2017-09-09T02:28:17.577Z,18.99
2017-09-09T02:30:44.719Z,18.99
2017-09-09T02:33:11.925Z,18.99
2017-09-09T02:35:39.055Z,18.99
2017-09-09T02:38:06.194Z,18.99
2017-09-09T02:40:33.338Z,18.99
2017-09-09T02:43:00.518Z,18.99
2017-09-09T02:45:27.649Z,18.99
2017-09-09T02:47:54.790Z,18.99
2017-09-09T02:50:21.926Z,18.99
2017-09-09T02:52:49.077Z,19.00
2017-09-09T02:55:16.232Z,18.99
2017-09-09T02:57:43.388Z,18.99
2017-09-09T03:00:10.540Z,18.99
2017-09-09T03:02:37.676Z,19.00
2017-09-09T03:05:04.813Z,18.99
2017-09-09T03:07:31.959Z,18.99
2017-09-09T03:09:59.107Z,18.99
2017-09-09T03:12:26.237Z,18.99
2017-09-09T03:14:53.361Z,18.99
2017-09-09T03:17:20.506Z,18.98
2017-09-09T03:19:47.656Z,18.99
2017-09-09T03:22:14.807Z,18.99
2017-09-09T03:24:41.969Z,18.99
2017-09-09T03:27:09.115Z,18.99
2017-09-09T03:29:36.249Z,18.98
2017-09-09T03:32:03.403Z,18.99
2017-09-09T03:34:30.563Z,18.99
2017-09-09T03:36:57.718Z,18.99
2017-09-09T03:39:24.853Z,18.98
2017-09-09T03:41:52.008Z,18.99
2017-09-09T03:44:19.163Z,18.98
2017-09-09T03:46:46.313Z,18.98
2017-09-09T03:49:13.463Z,18.99
2017-09-09T03:51:40.607Z,18.99
2017-09-09T03:54:07.755Z,18.99
2017-09-09T03:56:34.910Z,18.99
2017-09-09T03:59:02.059Z,18.99
2017-09-09T04:01:29.205Z,18.99
2017-09-09T04:03:56.359Z,18.99
2017-09-09T04:06:23.494Z,18.98
2017-09-09T04:08:50.645Z,18.98
2017-09-09T04:11:17.780Z,18.99
2017-09-09T04:13:45.681Z,18.99
2017-09-09T04:16:12.823Z,18.99
2017-09-09T04:18:39.967Z,18.98
2017-09-09T04:21:07.102Z,18.98
2017-09-09T04:23:34.252Z,18.98
2017-09-09T04:26:01.417Z,18.98
2017-09-09T04:28:28.557Z,18.98
2017-09-09T04:30:55.700Z,18.98
2017-09-09T04:33:22.845Z,18.99
2017-09-09T04:35:49.982Z,18.98
2017-09-09T04:38:17.133Z,18.98
2017-09-09T04:40:44.274Z,18.99
2017-09-09T04:43:11.402Z,18.98
2017-09-09T04:45:38.550Z,18.98
2017-09-09T04:48:05.974Z,18.99
2017-09-09T04:50:33.413Z,18.98
2017-09-09T04:53:00.565Z,18.98
2017-09-09T04:55:27.705Z,18.98
2017-09-09T04:57:55.632Z,18.98
2017-09-09T05:00:22.792Z,18.98
2017-09-09T05:02:49.924Z,18.98
2017-09-09T05:05:17.058Z,18.98
2017-09-09T05:07:44.218Z,18.98
2017-09-09T05:10:11.349Z,18.99
2017-09-09T05:12:38.504Z,18.98
2017-09-09T05:15:05.655Z,18.98
2017-09-09T05:17:32.808Z,18.97
2017-09-09T05:19:59.968Z,18.98
2017-09-09T05:22:27.101Z,18.98
2017-09-09T05:24:54.263Z,18.98
2017-09-09T05:27:21.402Z,18.98
2017-09-09T05:29:48.553Z,18.98
2017-09-09T05:32:15.696Z,18.98
2017-09-09T05:34:42.844Z,18.98
2017-09-09T05:37:10.004Z,18.98
2017-09-09T05:39:37.154Z,18.98
2017-09-09T05:42:04.307Z,18.98
2017-09-09T05:44:31.443Z,18.98
2017-09-09T05:46:58.597Z,18.98
2017-09-09T05:49:25.773Z,18.98
2017-09-09T05:51:52.905Z,18.98
2017-09-09T05:54:20.056Z,18.98
2017-09-09T05:56:47.203Z,18.98
2017-09-09T05:59:14.346Z,18.98
2017-09-09T06:01:41.660Z,18.97
2017-09-09T06:04:09.571Z,18.97
2017-09-09T06:06:36.719Z,18.98
2017-09-09T06:09:03.883Z,18.98
2017-09-09T06:11:31.032Z,18.98
2017-09-09T06:13:58.165Z,18.98
2017-09-09T06:16:25.293Z,18.97
2017-09-09T06:18:52.467Z,18.98
2017-09-09T06:21:19.598Z,18.98
2017-09-09T06:23:46.751Z,18.97
2017-09-09T06:26:15.028Z,18.97
2017-09-09T06:28:42.925Z,18.97
2017-09-09T06:31:10.079Z,18.98
2017-09-09T06:33:37.241Z,18.97
2017-09-09T06:36:04.382Z,18.98
2017-09-09T06:38:31.514Z,18.98
2017-09-09T06:40:58.681Z,18.97
2017-09-09T06:43:25.820Z,18.97
2017-09-09T06:45:52.974Z,18.97
2017-09-09T06:48:20.127Z,18.98
2017-09-09T06:50:47.279Z,18.98
2017-09-09T06:53:14.416Z,18.97
2017-09-09T06:55:41.568Z,18.97
2017-09-09T06:58:08.709Z,18.96
2017-09-09T07:00:35.841Z,18.97
2017-09-09T07:03:02.989Z,18.97
2017-09-09T07:05:30.121Z,18.96
2017-09-09T07:07:57.266Z,18.97
2017-09-09T07:10:24.411Z,18.97
2017-09-09T07:12:51.559Z,18.96
2017-09-09T07:15:18.689Z,18.97
2017-09-09T07:17:45.822Z,18.96
2017-09-09T07:20:12.979Z,18.97
2017-09-09T07:22:40.114Z,18.97
2017-09-09T07:25:07.276Z,18.97
2017-09-09T07:27:34.427Z,18.96
2017-09-09T07:30:01.556Z,18.97
2017-09-09T07:32:28.708Z,18.97
2017-09-09T07:34:55.864Z,18.97
2017-09-09T07:37:23.015Z,18.97
2017-09-09T07:39:50.152Z,18.96
2017-09-09T07:42:17.282Z,18.96
2017-09-09T07:44:45.207Z,18.96
2017-09-09T07:47:12.337Z,18.96
2017-09-09T07:49:39.469Z,18.96
2017-09-09T07:52:06.627Z,18.96
2017-09-09T07:54:33.774Z,18.96
2017-09-09T07:57:00.937Z,18.97
2017-09-09T07:59:28.070Z,18.97
2017-09-09T08:01:55.205Z,18.96
2017-09-09T08:04:22.370Z,18.96
2017-09-09T08:06:49.527Z,18.96
2017-09-09T08:09:16.684Z,18.96
2017-09-09T08:11:43.826Z,18.96
2017-09-09T08:14:10.980Z,18.96
2017-09-09T08:16:38.118Z,18.96
2017-09-09T08:19:05.268Z,18.96
2017-09-09T08:21:32.409Z,18.96
2017-09-09T08:23:59.561Z,18.97
2017-09-09T08:26:26.693Z,18.95
2017-09-09T08:28:53.825Z,18.96
2017-09-09T08:31:20.973Z,18.96
2017-09-09T08:33:48.114Z,18.96
2017-09-09T08:36:15.263Z,18.96
2017-09-09T08:38:42.403Z,18.96
2017-09-09T08:41:09.563Z,18.96
2017-09-09T08:43:36.711Z,18.96
2017-09-09T08:46:03.895Z,18.96
2017-09-09T08:48:31.026Z,18.95
2017-09-09T08:50:58.176Z,18.96
2017-09-09T08:53:25.309Z,18.96
2017-09-09T08:55:52.434Z,18.96
2017-09-09T08:58:19.597Z,18.96
2017-09-09T09:00:47.029Z,18.96
2017-09-09T09:03:14.180Z,18.96
2017-09-09T09:05:41.336Z,18.96
2017-09-09T09:08:08.488Z,18.95
2017-09-09T09:10:35.630Z,18.96
2017-09-09T09:13:02.762Z,18.96
2017-09-09T09:15:29.922Z,18.96
2017-09-09T09:17:57.059Z,18.96
2017-09-09T09:20:24.201Z,18.96
2017-09-09T09:22:52.099Z,18.96
2017-09-09T09:25:19.268Z,18.95
2017-09-09T09:27:46.420Z,18.96
2017-09-09T09:30:13.557Z,18.96
2017-09-09T09:32:40.715Z,18.95
2017-09-09T09:35:07.850Z,18.96
2017-09-09T09:37:34.986Z,18.95
2017-09-09T09:40:02.141Z,18.95
2017-09-09T09:42:29.332Z,18.96
2017-09-09T09:44:56.492Z,18.95
2017-09-09T09:47:23.648Z,18.95
2017-09-09T09:49:50.795Z,18.95
2017-09-09T09:52:17.946Z,18.96
2017-09-09T09:54:45.099Z,18.95
2017-09-09T09:57:12.255Z,18.96
2017-09-09T09:59:39.418Z,18.95
2017-09-09T10:02:06.569Z,18.95
2017-09-09T10:04:33.724Z,18.95
2017-09-09T10:07:00.862Z,18.95
2017-09-09T10:09:28.022Z,18.95
2017-09-09T10:11:55.165Z,18.95
2017-09-09T10:14:22.320Z,18.95
2017-09-09T10:16:49.453Z,18.95
2017-09-09T10:19:16.590Z,18.95
2017-09-09T10:21:43.764Z,18.95
2017-09-09T10:27:10.373Z,18.95
2017-09-09T10:29:37.557Z,18.95
2017-09-09T10:32:04.706Z,18.95
2017-09-09T10:34:31.846Z,18.95
2017-09-09T10:36:58.982Z,18.95
2017-09-09T10:39:26.132Z,18.95
2017-09-09T10:41:53.270Z,18.95
2017-09-09T10:44:20.420Z,18.95
2017-09-09T10:46:47.557Z,18.94
2017-09-09T10:49:14.725Z,18.95
2017-09-09T10:51:41.874Z,18.95
2017-09-09T10:54:09.009Z,18.95
2017-09-09T10:56:36.149Z,18.95
2017-09-09T10:59:03.290Z,18.94
2017-09-09T11:01:30.444Z,18.95
2017-09-09T11:03:57.596Z,18.95
2017-09-09T11:06:24.733Z,18.94
2017-09-09T11:08:51.885Z,18.95
2017-09-09T11:11:19.041Z,18.95
2017-09-09T11:13:46.173Z,18.95
2017-09-09T11:16:13.327Z,18.94
2017-09-09T11:18:40.483Z,18.95
2017-09-09T11:21:07.632Z,18.95
2017-09-09T11:23:34.797Z,18.94
2017-09-09T11:26:01.952Z,18.94
2017-09-09T11:28:29.098Z,18.94
2017-09-09T11:30:56.237Z,18.94
2017-09-09T11:33:23.374Z,18.94
2017-09-09T11:35:50.513Z,18.95
2017-09-09T11:38:17.664Z,18.94
2017-09-09T11:40:44.816Z,18.94
2017-09-09T11:43:11.962Z,18.94
2017-09-09T11:45:39.116Z,18.94
2017-09-09T11:48:06.257Z,18.95
2017-09-09T11:50:33.406Z,18.95
2017-09-09T11:53:00.560Z,18.94
2017-09-09T11:55:27.704Z,18.94
2017-09-09T11:57:54.862Z,18.94
2017-09-09T12:00:22.018Z,18.94
2017-09-09T12:02:49.154Z,18.94
2017-09-09T12:05:16.290Z,18.94
2017-09-09T12:07:43.444Z,18.95
2017-09-09T12:10:10.585Z,18.94
2017-09-09T12:12:37.778Z,18.95
2017-09-09T12:15:04.909Z,18.95
2017-09-09T12:17:32.065Z,18.94
2017-09-09T12:19:59.219Z,18.94
2017-09-09T12:22:26.376Z,18.94
2017-09-09T12:24:53.513Z,18.94
2017-09-09T12:27:20.650Z,18.94
2017-09-09T12:29:47.800Z,18.94
2017-09-09T12:32:14.951Z,18.94
2017-09-09T12:34:42.098Z,18.94
2017-09-09T12:37:09.249Z,18.94
2017-09-09T12:39:36.386Z,18.94
2017-09-09T12:42:03.549Z,18.94
2017-09-09T12:44:30.708Z,18.94
2017-09-09T12:46:57.860Z,18.95
2017-09-09T12:49:25.005Z,18.94
2017-09-09T12:51:52.179Z,18.94
2017-09-09T12:54:19.332Z,18.94
2017-09-09T12:56:46.489Z,18.94
2017-09-09T12:59:13.641Z,18.93
2017-09-09T13:01:40.790Z,18.94
2017-09-09T13:04:07.946Z,18.94
2017-09-09T13:06:35.103Z,18.94
2017-09-09T13:09:02.251Z,18.94
2017-09-09T13:11:29.401Z,18.94
2017-09-09T13:13:56.551Z,18.94
2017-09-09T13:16:23.694Z,18.94
2017-09-09T13:18:50.850Z,18.94
2017-09-09T13:21:17.985Z,18.94
2017-09-09T13:23:45.117Z,18.94
2017-09-09T13:26:12.259Z,18.93
2017-09-09T13:28:39.411Z,18.93
2017-09-09T13:31:06.545Z,18.94
2017-09-09T13:33:33.685Z,18.94
2017-09-09T13:36:00.835Z,18.93
2017-09-09T13:38:27.984Z,18.93
2017-09-09T13:40:55.143Z,18.93
2017-09-09T13:43:23.282Z,18.93
2017-09-09T13:45:50.420Z,18.93
2017-09-09T13:48:17.553Z,18.93
2017-09-09T13:50:44.689Z,18.93
2017-09-09T13:53:11.864Z,18.94
2017-09-09T13:55:39.009Z,18.94
2017-09-09T13:58:06.151Z,18.94
2017-09-09T14:00:33.288Z,18.94
2017-09-09T14:03:00.436Z,18.94
2017-09-09T14:05:27.574Z,18.94
2017-09-09T14:07:54.717Z,18.94
2017-09-09T14:10:21.854Z,18.93
2017-09-09T14:12:48.978Z,18.93
2017-09-09T14:15:16.136Z,18.93
2017-09-09T14:17:43.273Z,18.94
2017-09-09T14:20:10.427Z,18.94
2017-09-09T14:22:37.566Z,18.93
2017-09-09T14:25:04.702Z,18.93
2017-09-09T14:27:31.890Z,18.93
2017-09-09T14:29:59.027Z,18.94
2017-09-09T14:32:26.356Z,18.93
2017-09-09T14:34:53.512Z,18.94
2017-09-09T14:37:20.652Z,18.94
2017-09-09T14:39:48.571Z,18.93
2017-09-09T14:42:15.711Z,18.94
2017-09-09T14:44:42.843Z,18.93
2017-09-09T14:47:09.987Z,18.93
2017-09-09T14:49:37.145Z,18.93
2017-09-09T14:52:04.303Z,18.93
2017-09-09T14:54:31.453Z,18.93
2017-09-09T14:56:58.588Z,18.93
2017-09-09T14:59:25.740Z,18.94
2017-09-09T15:01:52.878Z,18.93
2017-09-09T15:04:20.013Z,18.93
2017-09-09T15:06:47.161Z,18.93
2017-09-09T15:09:14.306Z,18.93
2017-09-09T15:11:41.462Z,18.93
2017-09-09T15:14:08.608Z,18.93
2017-09-09T15:16:35.742Z,18.93
2017-09-09T15:19:02.878Z,18.93
2017-09-09T15:21:30.019Z,18.93
2017-09-09T15:23:57.149Z,18.92
2017-09-09T15:26:24.295Z,18.93
2017-09-09T15:28:51.442Z,18.93
2017-09-09T15:31:18.602Z,18.92
2017-09-09T15:33:45.755Z,18.93
2017-09-09T15:36:12.886Z,18.93
2017-09-09T15:38:40.035Z,18.93
2017-09-09T15:41:07.200Z,18.93
2017-09-09T15:43:34.341Z,18.93
2017-09-09T15:46:01.499Z,18.93
2017-09-09T15:48:28.685Z,18.93
2017-09-09T15:50:55.831Z,18.93
2017-09-09T15:53:22.973Z,18.93
2017-09-09T15:55:50.106Z,18.93
2017-09-09T15:58:17.244Z,18.92
2017-09-09T16:00:44.381Z,18.92
2017-09-09T16:03:11.544Z,18.93
2017-09-09T16:05:38.683Z,18.92
2017-09-09T16:08:05.823Z,18.92
2017-09-09T16:10:32.970Z,18.92
2017-09-09T16:13:00.113Z,18.92
2017-09-09T16:15:28.032Z,18.92
2017-09-09T16:17:55.163Z,18.93
2017-09-09T16:20:22.305Z,18.92
2017-09-09T16:22:49.526Z,18.93
2017-09-09T16:25:18.640Z,18.93
2017-09-09T16:27:45.956Z,18.92
2017-09-09T16:30:13.089Z,18.92
2017-09-09T16:32:40.695Z,18.92
2017-09-09T16:35:08.380Z,18.93
2017-09-09T16:37:35.538Z,18.93
2017-09-09T16:40:02.688Z,18.92
2017-09-09T16:42:29.860Z,18.92
2017-09-09T16:44:57.505Z,18.92
2017-09-09T16:47:24.651Z,18.93
2017-09-09T16:49:51.816Z,18.93
2017-09-09T16:52:19.147Z,18.92
2017-09-09T16:54:46.442Z,18.93
2017-09-09T16:57:13.600Z,18.92
2017-09-09T16:59:40.729Z,18.92
2017-09-09T17:02:07.871Z,18.93
2017-09-09T17:04:35.680Z,18.93
2017-09-09T17:07:03.445Z,18.92
2017-09-09T17:09:30.644Z,18.92
2017-09-09T17:11:57.791Z,18.92
2017-09-09T17:14:25.026Z,18.92
2017-09-09T17:16:54.710Z,18.92
2017-09-09T17:19:22.047Z,18.92
2017-09-09T17:21:49.525Z,18.93
2017-09-09T17:24:17.439Z,18.92
2017-09-09T17:26:44.745Z,18.92
2017-09-09T17:29:13.201Z,18.92
2017-09-09T17:31:40.340Z,18.92
2017-09-09T17:34:07.474Z,18.92
2017-09-09T17:36:34.902Z,18.92
2017-09-09T17:39:02.678Z,18.92
2017-09-09T17:41:30.101Z,18.92
2017-09-09T17:43:58.058Z,18.92
2017-09-09T17:46:25.218Z,18.92
2017-09-09T17:48:52.812Z,18.92
2017-09-09T17:51:20.004Z,18.92
2017-09-09T17:53:47.141Z,18.92
2017-09-09T17:56:14.435Z,18.92
2017-09-09T17:58:41.715Z,18.92
2017-09-09T18:01:08.899Z,18.91
2017-09-09T18:03:36.042Z,18.92
2017-09-09T18:06:03.402Z,18.91
2017-09-09T18:08:30.573Z,18.92
2017-09-09T18:10:57.710Z,18.92
2017-09-09T18:13:24.846Z,18.91
2017-09-09T18:15:52.008Z,18.92
2017-09-09T18:18:19.256Z,18.92
2017-09-09T18:20:48.940Z,18.91
2017-09-09T18:23:16.285Z,18.91
2017-09-09T18:25:45.495Z,18.92
2017-09-09T18:28:14.231Z,18.92
2017-09-09T18:30:41.475Z,18.92
2017-09-09T18:33:08.635Z,18.91
2017-09-09T18:35:36.958Z,18.91
2017-09-09T18:38:04.119Z,18.92
2017-09-09T18:40:31.267Z,18.91
2017-09-09T18:42:59.329Z,18.91
2017-09-09T18:45:26.494Z,18.91
2017-09-09T18:47:53.798Z,18.91
2017-09-09T18:50:20.976Z,18.90
2017-09-09T18:52:48.234Z,18.91
2017-09-09T18:55:15.678Z,18.91
2017-09-09T18:57:43.116Z,18.91
2017-09-09T19:00:11.200Z,18.92
2017-09-09T19:02:38.335Z,18.91
2017-09-09T19:05:06.749Z,18.91
2017-09-09T19:07:35.208Z,18.92
2017-09-09T19:10:02.384Z,18.91
2017-09-09T19:12:29.522Z,18.90
2017-09-09T19:14:56.684Z,18.91
2017-09-09T19:17:23.835Z,18.91
2017-09-09T19:19:50.998Z,18.91
2017-09-09T19:22:18.138Z,18.91
2017-09-09T19:24:45.277Z,18.91
2017-09-09T19:27:12.430Z,18.92
2017-09-09T19:29:39.586Z,18.91
2017-09-09T19:32:06.911Z,18.91
2017-09-09T19:34:34.809Z,18.91
2017-09-09T19:37:01.959Z,18.91
2017-09-09T19:39:29.112Z,18.91
2017-09-09T19:41:56.763Z,18.92
2017-09-09T19:44:24.566Z,18.91
2017-09-09T19:46:51.967Z,18.91
2017-09-09T19:49:19.326Z,18.91
2017-09-09T19:51:46.869Z,18.91
2017-09-09T19:54:15.015Z,18.91
2017-09-09T19:56:42.227Z,18.91
2017-09-09T19:59:10.268Z,18.91
2017-09-09T20:01:37.720Z,18.91
2017-09-09T20:04:04.876Z,18.90
2017-09-09T20:06:32.006Z,18.91
2017-09-09T20:08:59.387Z,18.90
2017-09-09T20:11:26.592Z,18.91
2017-09-09T20:13:53.737Z,18.90
2017-09-09T20:16:21.134Z,18.90
2017-09-09T20:18:49.232Z,18.91
2017-09-09T20:21:16.405Z,18.90
2017-09-09T20:23:43.572Z,18.90
2017-09-09T20:26:10.787Z,18.90
2017-09-09T20:28:37.964Z,18.91
2017-09-09T20:31:05.106Z,18.90
2017-09-09T20:33:32.249Z,18.90
2017-09-09T20:35:59.478Z,18.90
2017-09-09T20:38:26.703Z,18.90
2017-09-09T20:40:54.627Z,18.90
2017-09-09T20:43:21.784Z,18.90
2017-09-09T20:45:48.980Z,18.90
2017-09-09T20:48:16.125Z,18.90
2017-09-09T20:50:43.301Z,18.89
2017-09-09T20:53:10.563Z,18.90
2017-09-09T20:55:37.706Z,18.90
2017-09-09T20:58:04.882Z,18.89
2017-09-09T21:00:32.053Z,18.89
2017-09-09T21:02:59.203Z,18.88
2017-09-09T21:05:26.428Z,18.89
2017-09-09T21:07:53.580Z,18.88
2017-09-09T21:10:20.899Z,18.88
2017-09-09T21:12:48.057Z,18.88
2017-09-09T21:15:15.203Z,18.88
2017-09-09T21:17:42.345Z,18.88
2017-09-09T21:20:10.568Z,18.88
2017-09-09T21:22:37.732Z,18.88
2017-09-09T21:25:04.869Z,18.88
2017-09-09T21:27:32.027Z,18.88
2017-09-09T21:29:59.221Z,18.88
2017-09-09T21:32:26.366Z,18.88
2017-09-09T21:34:53.519Z,18.87
2017-09-09T21:37:20.662Z,18.88
2017-09-09T21:39:47.820Z,18.87
2017-09-09T21:42:14.974Z,18.88
2017-09-09T21:44:42.121Z,18.87
2017-09-09T21:47:09.295Z,18.87
2017-09-09T21:49:36.454Z,18.88
2017-09-09T21:52:03.598Z,18.88
2017-09-09T21:54:30.774Z,18.87
2017-09-09T21:56:57.908Z,18.87
2017-09-09T21:59:25.063Z,18.87
2017-09-09T22:01:52.219Z,18.87
2017-09-09T22:04:19.350Z,18.87
2017-09-09T22:06:46.492Z,18.88
2017-09-09T22:09:13.648Z,18.87
2017-09-09T22:11:40.820Z,18.87
2017-09-09T22:14:07.980Z,18.88
2017-09-09T22:16:35.127Z,18.87
2017-09-09T22:19:02.280Z,18.88
2017-09-09T22:21:29.438Z,18.88
2017-09-09T22:23:56.602Z,18.88
2017-09-09T22:26:23.746Z,18.87
2017-09-09T22:28:51.136Z,18.87
2017-09-09T22:31:19.104Z,18.88
2017-09-09T22:33:46.475Z,18.87
2017-09-09T22:36:13.688Z,18.87
2017-09-09T22:38:40.826Z,18.87
2017-09-09T22:41:07.958Z,18.87
2017-09-09T22:43:35.093Z,18.87
2017-09-09T22:46:02.233Z,18.87
2017-09-09T22:48:30.904Z,18.87
2017-09-09T22:50:58.212Z,18.87
2017-09-09T22:53:25.359Z,18.87
2017-09-09T22:55:52.642Z,18.87
2017-09-09T22:58:21.310Z,18.87
2017-09-09T23:00:48.459Z,18.86
2017-09-09T23:03:15.593Z,18.87
2017-09-09T23:05:43.124Z,18.86
2017-09-09T23:08:10.288Z,18.86
2017-09-09T23:10:37.439Z,18.87
2017-09-09T23:13:04.578Z,18.86
2017-09-09T23:15:31.731Z,18.86
2017-09-09T23:17:58.881Z,18.86
2017-09-09T23:20:26.037Z,18.86
2017-09-09T23:22:53.195Z,18.86
2017-09-09T23:25:20.599Z,18.87
2017-09-09T23:27:48.502Z,18.87
2017-09-09T23:30:15.642Z,18.86
2017-09-09T23:32:42.794Z,18.86
2017-09-09T23:35:09.926Z,18.85
2017-09-09T23:37:37.074Z,18.87
2017-09-09T23:40:04.252Z,18.86
2017-09-09T23:42:31.428Z,18.86
2017-09-09T23:44:58.571Z,18.85
2017-09-09T23:47:25.725Z,18.86
2017-09-09T23:49:53.013Z,18.86
2017-09-09T23:52:20.913Z,18.86
2017-09-09T23:54:48.054Z,18.85
2017-09-09T23:57:15.206Z,18.86
2017-09-09T23:59:42.340Z,18.86
